^^
Grace C. Lehan Memorial Weather Station Historical Data
Daily Summary for September 28, 2021 Units:  Metric    English   Both
Daily Weekly Monthly Yearly
  High: Low: Average:
Temperature: 8.4 °C 0.2 °C 4.2 °C
Dew Point: 5.2 °C -1.6 °C 1.6 °C
Humidity: 95% 69.8% 84%
Wind Speed: 12.1km/h 0km/h 1.1km/h
Wind Gust: 24.1km/h - -
Wind- - West
Pressure: 1012.1 hPa 1007.7 hPa -
Precipitation: 2.29 mm    
 
 
Tabular Data for September 28, 2021
Time Temperature Dew Point Pressure Wind Wind Speed Wind Gust Humidity Rainfall Rate (Hourly) solar
00:04 0.2 °C -1.6 °C 1010.4 hPa Calm   3.2 km/h 88% 0 mm 0 W/m2
00:09 0.2 °C -1.5 °C 1010 hPa Calm     88% 0 mm 0 W/m2
00:14 0.2 °C -1.6 °C 1010 hPa Calm     88% 0 mm 0 W/m2
00:19 0.2 °C -1.6 °C 1009.7 hPa Calm     88% 0 mm 0 W/m2
00:24 0.2 °C -1.6 °C 1009.7 hPa Calm     88% 0 mm 0 W/m2
00:29 0.2 °C -1.4 °C 1010 hPa Calm     88.8% 0 mm 0 W/m2
00:34 0.2 °C -1.4 °C 1010 hPa Calm     89% 0 mm 0 W/m2
00:39 0.2 °C -1.4 °C 1009.7 hPa Calm     89% 0 mm 0 W/m2
00:44 0.2 °C -1.3 °C 1009.7 hPa Calm     89% 0 mm 0 W/m2
00:49 0.3 °C -1.3 °C 1009.4 hPa Calm     89% 0 mm 0 W/m2
00:54 0.3 °C -1.3 °C 1009.4 hPa Calm     89% 0 mm 0 W/m2
00:59 0.3 °C -1.3 °C 1009.4 hPa Calm     89% 0 mm 0 W/m2
01:04 0.3 °C -1.2 °C 1009.7 hPa Calm     89.4% 0 mm 0 W/m2
01:09 0.3 °C -1.1 °C 1009.7 hPa Calm     90% 0 mm 0 W/m2
01:14 0.4 °C -1.1 °C 1009.4 hPa Calm     90% 0 mm 0 W/m2
01:19 0.4 °C -1.1 °C 1009 hPa Calm     90% 0 mm 0 W/m2
01:24 0.4 °C -1.1 °C 1009 hPa Calm     90% 0 mm 0 W/m2
01:29 0.3 °C -1.1 °C 1009 hPa Calm     90% 0 mm 0 W/m2
01:34 0.3 °C -1.1 °C 1009 hPa Calm     90% 0 mm 0 W/m2
01:39 0.3 °C -1.1 °C 1009 hPa Calm     90% 0 mm 0 W/m2
01:44 0.3 °C -1.1 °C 1009 hPa Calm     90% 0 mm 0 W/m2
01:49 0.4 °C -1.1 °C 1009 hPa Calm     90% 0 mm 0 W/m2
01:54 0.4 °C -1.1 °C 1009 hPa Calm     90% 0 mm 0 W/m2
01:59 0.4 °C -1 °C 1009 hPa Calm     90% 0 mm 0 W/m2
02:04 0.4 °C -1 °C 1008.7 hPa Calm     90% 0 mm 0 W/m2
02:09 0.4 °C -1 °C 1009 hPa Calm     90.1% 0 mm 0 W/m2
02:14 0.4 °C -0.8 °C 1009 hPa Calm     91% 0 mm 0 W/m2
02:19 0.5 °C -0.8 °C 1009 hPa Calm     91% 0 mm 0 W/m2
02:24 0.5 °C -0.8 °C 1009 hPa Calm     91% 0 mm 0 W/m2
02:25 0.6 °C -0.7 °C 1009 hPa Calm     91% 0 mm 0 W/m2
02:30 0.6 °C -0.7 °C 1009 hPa Calm   3.2 km/h 91% 0 mm 0 W/m2
03:00 0.7 °C -0.5 °C 1008.7 hPa Calm   4.8 km/h 92% 0 mm 0 W/m2
03:30 0.7 °C -0.5 °C 1009 hPa NNE 1.6 km/h 6.4 km/h 92% 0 mm 0 W/m2
04:04 0.6 °C -0.4 °C 1009 hPa NNE 0.2 km/h 6.4 km/h 92.9% 0 mm 0 W/m2
04:09 0.6 °C -0.4 °C 1008.4 hPa Calm   1.6 km/h 93% 0 mm 0 W/m2
04:14 0.6 °C -0.4 °C 1008.4 hPa Calm   1.6 km/h 93% 0 mm 0 W/m2
04:19 0.6 °C -0.4 °C 1008.4 hPa Calm   1.6 km/h 93% 0 mm 0 W/m2
04:24 0.7 °C -0.3 °C 1008.4 hPa Calm   1.6 km/h 93% 0 mm 0 W/m2
04:29 0.7 °C -0.3 °C 1008.4 hPa Calm   1.6 km/h 93% 0 mm 0 W/m2
04:34 0.7 °C -0.3 °C 1008.4 hPa Calm   1.6 km/h 93% 0 mm 0 W/m2
04:39 0.7 °C -0.3 °C 1008.4 hPa Calm     93% 0 mm 0 W/m2
04:44 0.7 °C -0.3 °C 1008.4 hPa Calm     93% 0 mm 0 W/m2
04:49 0.7 °C -0.3 °C 1008.4 hPa Calm     93% 0 mm 0 W/m2
04:54 0.7 °C -0.3 °C 1008.4 hPa Calm     93% 0 mm 0 W/m2
04:59 0.7 °C -0.3 °C 1008.4 hPa Calm     93% 0 mm 0 W/m2
05:04 0.8 °C -0.2 °C 1008.4 hPa Calm     93% 0 mm 0 W/m2
05:09 0.8 °C -0.2 °C 1008.4 hPa Calm     93% 0 mm 0 W/m2
05:14 0.8 °C -0.2 °C 1008.4 hPa Calm     93% 0 mm 0 W/m2
05:19 0.8 °C -0.2 °C 1008.4 hPa Calm     93% 0 mm 0 W/m2
05:24 0.8 °C -0.2 °C 1008.4 hPa Calm     93% 0 mm 0 W/m2
05:29 0.8 °C -0.2 °C 1008.4 hPa Calm     93% 0 mm 0 W/m2
05:34 0.8 °C -0.1 °C 1008.4 hPa Calm     93.6% 0 mm 0 W/m2
05:39 0.9 °C 0 °C 1008.4 hPa Calm     94% 0 mm 0 W/m2
05:44 0.9 °C 0.1 °C 1008.4 hPa Calm     94% 0 mm 0 W/m2
05:49 0.9 °C 0.1 °C 1008 hPa Calm     94% 0 mm 0 W/m2
05:54 0.9 °C 0.1 °C 1008 hPa Calm     94% 0 mm 0 W/m2
05:59 0.9 °C 0.1 °C 1008 hPa Calm     94% 0 mm 0 W/m2
06:04 0.9 °C 0.1 °C 1008 hPa Calm     94% 0 mm 0 W/m2
06:09 0.9 °C 0.1 °C 1008 hPa Calm     94% 0 mm 0 W/m2
06:14 0.9 °C 0.1 °C 1008 hPa Calm     94% 0 mm 0 W/m2
06:19 0.9 °C 0.1 °C 1008.4 hPa Calm     94% 0 mm 0 W/m2
06:24 0.9 °C 0.1 °C 1008 hPa Calm     94% 0 mm 0 W/m2
06:29 0.9 °C 0.1 °C 1008 hPa Calm     94% 0 mm 0 W/m2
06:34 0.9 °C 0.1 °C 1008 hPa Calm     94% 0 mm 0 W/m2
06:39 0.9 °C 0.1 °C 1008.4 hPa Calm     94% 0 mm 0 W/m2
06:44 0.9 °C 0.1 °C 1008.4 hPa Calm     94% 0 mm 0 W/m2
06:49 0.9 °C 0.1 °C 1008.4 hPa Calm     94% 0 mm 0 W/m2
06:54 0.9 °C 0.1 °C 1008.4 hPa Calm     94% 0 mm 0 W/m2
06:59 0.9 °C 0.1 °C 1008.7 hPa Calm     94% 0 mm 0 W/m2
07:04 0.9 °C 0.1 °C 1008.7 hPa Calm     94% 0 mm 0 W/m2
07:09 0.9 °C 0.1 °C 1009 hPa Calm     94% 0 mm 0 W/m2
07:14 0.9 °C 0.1 °C 1009.4 hPa Calm     94% 0 mm 0 W/m2
07:19 1 °C 0.2 °C 1009.4 hPa Calm     94% 0 mm 0 W/m2
07:24 1 °C 0.2 °C 1009.4 hPa Calm     94% 0 mm 0 W/m2
07:29 1 °C 0.2 °C 1009.4 hPa Calm     94% 0 mm 0 W/m2
07:34 1 °C 0.2 °C 1009.4 hPa Calm     94% 0 mm 0 W/m2
07:39 1 °C 0.2 °C 1009.4 hPa Calm     94% 0 mm 0 W/m2
07:44 1 °C 0.2 °C 1009 hPa Calm     94% 0 mm 9 W/m2
07:49 1 °C 0.2 °C 1009 hPa Calm     94% 0 mm 12 W/m2
07:54 1 °C 0.2 °C 1008.7 hPa Calm     94% 0 mm 18 W/m2
07:59 1 °C 0.2 °C 1009 hPa Calm     94% 0 mm 18 W/m2
08:04 1.1 °C 0.2 °C 1009 hPa Calm     94% 0.25 mm 21 W/m2
08:09 1.1 °C 0.2 °C 1009 hPa Calm     94% 0.25 mm 25 W/m2
08:14 1.2 °C 0.3 °C 1009.4 hPa Calm     94.2% 0.25 mm 28 W/m2
08:19 1.2 °C 0.5 °C 1009.4 hPa Calm     95% 0.25 mm 30 W/m2
08:24 1.2 °C 0.5 °C 1009.4 hPa Calm     95% 0.25 mm 35 W/m2
08:29 1.3 °C 0.6 °C 1009.4 hPa Calm     95% 0.51 mm 33 W/m2
08:34 1.3 °C 0.6 °C 1009.7 hPa Calm   1.6 km/h 95% 0.51 mm 28 W/m2
08:39 1.3 °C 0.6 °C 1009.7 hPa Calm   1.6 km/h 95% 0.51 mm 33 W/m2
08:44 1.3 °C 0.7 °C 1009.7 hPa Calm   1.6 km/h 95% 0.51 mm 51 W/m2
08:49 1.4 °C 0.7 °C 1009.4 hPa Calm   1.6 km/h 95% 0.51 mm 54 W/m2
08:54 1.4 °C 0.7 °C 1009.4 hPa Calm   1.6 km/h 95% 0.51 mm 65 W/m2
08:59 1.4 °C 0.7 °C 1009.4 hPa Calm   1.6 km/h 95% 0.51 mm 69 W/m2
09:04 1.5 °C 0.8 °C 1009.4 hPa Calm   1.6 km/h 95% 0.51 mm 156 W/m2
09:09 1.6 °C 0.9 °C 1009.4 hPa Calm     95% 0 mm 156 W/m2
09:14 1.8 °C 1.1 °C 1009.4 hPa Calm     95% 0 mm 253 W/m2
09:19 2.1 °C 1.3 °C 1009.7 hPa Calm     95% 0 mm 267 W/m2
09:24 2.3 °C 1.6 °C 1009.7 hPa Calm     95% 0 mm 107 W/m2
09:29 2.5 °C 1.8 °C 1009.7 hPa Calm     95% 0 mm 153 W/m2
09:34 2.7 °C 1.9 °C 1009.7 hPa Calm     95% 0 mm 153 W/m2
09:39 2.8 °C 2.1 °C 1009.7 hPa Calm     95% 0 mm 160 W/m2
09:44 2.9 °C 2.2 °C 1009.7 hPa Calm     95% 0 mm 155 W/m2
09:49 2.9 °C 2.2 °C 1009.7 hPa Calm     95% 0 mm 158 W/m2
09:54 3.1 °C 2.3 °C 1009.7 hPa Calm     95% 0 mm 83 W/m2
09:59 3.2 °C 2.5 °C 1009.7 hPa Calm   1.6 km/h 95% 0 mm 125 W/m2
10:04 3.4 °C 2.7 °C 1009.4 hPa Calm   1.6 km/h 95% 0 mm 148 W/m2
10:09 3.7 °C 2.9 °C 1009.4 hPa Calm     95% 0 mm 185 W/m2
10:14 4 °C 3.3 °C 1009.4 hPa NNE 1 km/h 6.4 km/h 95% 0.25 mm 232 W/m2
10:19 4.4 °C 3.7 °C 1009.4 hPa North 1.8 km/h 8 km/h 95% 0.25 mm 311 W/m2
10:24 4.9 °C 4.2 °C 1009.7 hPa NW 2.4 km/h 9.7 km/h 95% 0.25 mm 381 W/m2
10:29 5.6 °C 4.8 °C 1009.7 hPa WNW 5.8 km/h 19.3 km/h 95% 0.25 mm 406 W/m2
10:34 5.9 °C 5.2 °C 1009.7 hPa WNW 8.5 km/h 19.3 km/h 94.7% 0.25 mm 424 W/m2
10:39 6.3 °C 5.2 °C 1009.4 hPa WNW 6.6 km/h 19.3 km/h 92.3% 0.51 mm 415 W/m2
10:44 6.6 °C 5 °C 1009.4 hPa WNW 6.3 km/h 19.3 km/h 89.6% 0.51 mm 366 W/m2
10:49 6.7 °C 4.9 °C 1009.4 hPa WNW 6.9 km/h 19.3 km/h 88.2% 0.51 mm 322 W/m2
10:54 6.9 °C 4.8 °C 1009.4 hPa WNW 4.3 km/h 19.3 km/h 87% 0.51 mm 227 W/m2
10:59 7 °C 4.9 °C 1009.4 hPa WNW 7.1 km/h 19.3 km/h 86.6% 0.51 mm 160 W/m2
11:04 7.2 °C 4.9 °C 1009.4 hPa West 4 km/h 19.3 km/h 86% 0.51 mm 130 W/m2
11:09 7.2 °C 4.9 °C 1009.4 hPa West 5.6 km/h 14.5 km/h 85.2% 0.51 mm 176 W/m2
11:14 7.2 °C 4.8 °C 1009.4 hPa WNW 7.6 km/h 17.7 km/h 84.4% 0.51 mm 121 W/m2
11:19 7.2 °C 4.7 °C 1009 hPa WNW 4 km/h 17.7 km/h 84% 0.51 mm 105 W/m2
11:24 7.3 °C 4.7 °C 1009 hPa West 2.9 km/h 17.7 km/h 84% 0.51 mm 109 W/m2
11:29 7.4 °C 4.9 °C 1009 hPa WNW 5.1 km/h 17.7 km/h 84.1% 0.51 mm 151 W/m2
11:34 7.5 °C 4.9 °C 1009.4 hPa NW 4.2 km/h 17.7 km/h 83.8% 0.51 mm 193 W/m2
11:39 7.6 °C 4.8 °C 1009 hPa NW 8.5 km/h 20.9 km/h 82.5% 0.25 mm 165 W/m2
11:44 7.6 °C 4.4 °C 1009 hPa WNW 12.1 km/h 24.1 km/h 80.1% 0.25 mm 188 W/m2
11:49 7.5 °C 4.1 °C 1009 hPa NW 10 km/h 24.1 km/h 79% 0.25 mm 137 W/m2
11:54 7.4 °C 4 °C 1008.7 hPa WNW 6.3 km/h 24.1 km/h 78.7% 0.25 mm 111 W/m2
11:59 7.5 °C 4 °C 1008.7 hPa WNW 7.1 km/h 24.1 km/h 78.4% 0.25 mm 79 W/m2
12:00 7.5 °C 3.9 °C 1008.4 hPa WNW 3.2 km/h 24.1 km/h 78% 0.25 mm 56 W/m2
12:09 7.5 °C 3.9 °C 1008.4 hPa West 3.9 km/h 11.3 km/h 78% 0.25 mm 123 W/m2
12:14 7.7 °C 4.2 °C 1008.4 hPa WSW 2.1 km/h 11.3 km/h 78.8% 0.25 mm 450 W/m2
12:19 7.9 °C 4.3 °C 1008.4 hPa West 4.2 km/h 11.3 km/h 78.2% 0.25 mm 446 W/m2
12:24 8.2 °C 4.3 °C 1008 hPa West 5.8 km/h 16.1 km/h 76.6% 0.25 mm 411 W/m2
12:29 8.2 °C 4 °C 1008 hPa WNW 8.9 km/h 22.5 km/h 74.7% 0.25 mm 67 W/m2
12:34 8.1 °C 3.8 °C 1008 hPa NW 6.9 km/h 22.5 km/h 74% 0.25 mm 90 W/m2
12:39 8.1 °C 3.7 °C 1008 hPa WNW 7.1 km/h 17.7 km/h 74% 0 mm 243 W/m2
12:44 8.1 °C 3.7 °C 1008 hPa WNW 9.7 km/h 20.9 km/h 73.6% 0 mm 445 W/m2
12:49 8.2 °C 3.7 °C 1008 hPa WNW 5.8 km/h 20.9 km/h 73% 0 mm 445 W/m2
12:54 8.4 °C 3.6 °C 1008 hPa WNW 7.2 km/h 20.9 km/h 71.5% 0 mm 216 W/m2
12:59 8.4 °C 3.5 °C 1007.7 hPa WNW 3.2 km/h 20.9 km/h 71% 0 mm 97 W/m2
13:04 8.4 °C 3.4 °C 1007.7 hPa WNW 4.8 km/h 20.9 km/h 70.9% 0 mm 77 W/m2
13:09 8.2 °C 3.2 °C 1008 hPa WNW 1.9 km/h 16.1 km/h 70.7% 0 mm 95 W/m2
13:14 8.1 °C 3.1 °C 1008 hPa WNW 7.1 km/h 16.1 km/h 71% 0 mm 100 W/m2
13:19 7.8 °C 2.9 °C 1008 hPa WNW 7.7 km/h 17.7 km/h 71% 0 mm 185 W/m2
13:24 7.7 °C 2.8 °C 1008 hPa WNW 5.1 km/h 17.7 km/h 71% 0 mm 185 W/m2
13:29 7.7 °C 2.9 °C 1007.7 hPa WNW 5.5 km/h 17.7 km/h 72% 0 mm 251 W/m2
13:34 7.7 °C 2.9 °C 1007.7 hPa WNW 4.8 km/h 17.7 km/h 71.8% 0 mm 121 W/m2
13:39 7.7 °C 2.8 °C 1007.7 hPa WNW 2.6 km/h 17.7 km/h 71.5% 0 mm 135 W/m2
13:44 7.7 °C 3 °C 1007.7 hPa WNW 1 km/h 17.7 km/h 72% 0 mm 137 W/m2
13:49 7.8 °C 3.1 °C 1007.7 hPa Calm   17.7 km/h 72% 0 mm 141 W/m2
13:54 7.8 °C 3.1 °C 1007.7 hPa West 3.2 km/h 17.7 km/h 71.9% 0 mm 192 W/m2
13:59 7.9 °C 3 °C 1007.7 hPa WSW 3.1 km/h 17.7 km/h 71% 0 mm 167 W/m2
14:04 8.1 °C 3.2 °C 1008 hPa WSW 1.8 km/h 17.7 km/h 71.6% 0 mm 163 W/m2
14:09 8.2 °C 3.2 °C 1008 hPa WSW 3.1 km/h 9.7 km/h 71.2% 0 mm 134 W/m2
14:14 8.2 °C 3 °C 1008 hPa West 2.7 km/h 12.9 km/h 70% 0 mm 81 W/m2
14:19 8.1 °C 2.9 °C 1007.7 hPa West 2.1 km/h 12.9 km/h 69.8% 0 mm 91 W/m2
14:24 8 °C 2.8 °C 1007.7 hPa West 1.4 km/h 12.9 km/h 70% 0 mm 98 W/m2
14:29 7.9 °C 3 °C 1007.7 hPa West 2.1 km/h 12.9 km/h 71% 0 mm 98 W/m2
14:34 7.9 °C 2.9 °C 1008 hPa West 0.5 km/h 12.9 km/h 70.6% 0 mm 98 W/m2
14:39 7.9 °C 3.1 °C 1008.4 hPa West 0.6 km/h 8 km/h 71.3% 0 mm 95 W/m2
14:44 7.9 °C 3 °C 1008.4 hPa West 0.8 km/h 8 km/h 71.2% 0 mm 95 W/m2
14:49 7.9 °C 3 °C 1008.4 hPa West 3.1 km/h 11.3 km/h 71.1% 0 mm 90 W/m2
14:54 7.9 °C 2.9 °C 1008.4 hPa West 0.2 km/h 11.3 km/h 71% 0 mm 93 W/m2
14:59 7.9 °C 2.9 °C 1008.4 hPa West 0.8 km/h 11.3 km/h 71% 0 mm 93 W/m2
15:04 7.9 °C 3.1 °C 1008.4 hPa West 1.1 km/h 11.3 km/h 71.8% 0 mm 72 W/m2
15:09 7.9 °C 3 °C 1008 hPa West 0.3 km/h 8 km/h 71.1% 0 mm 76 W/m2
15:14 7.9 °C 2.9 °C 1008 hPa West 0.5 km/h 8 km/h 71% 0 mm 49 W/m2
15:19 7.8 °C 2.9 °C 1008 hPa West 0.6 km/h 8 km/h 71% 0 mm 47 W/m2
15:24 7.8 °C 2.8 °C 1008 hPa Calm   8 km/h 71% 0 mm 47 W/m2
15:29 7.7 °C 2.8 °C 1008.4 hPa Calm   8 km/h 71.2% 0 mm 40 W/m2
15:34 7.7 °C 2.8 °C 1008.4 hPa Calm   8 km/h 71.2% 0 mm 33 W/m2
15:39 7.7 °C 2.8 °C 1008.4 hPa Calm     71.5% 0 mm 28 W/m2
15:44 7.6 °C 2.9 °C 1008.4 hPa Calm     71.8% 0 mm 26 W/m2
15:49 7.6 °C 2.7 °C 1008 hPa Calm   1.6 km/h 71.5% 0 mm 19 W/m2
15:54 7.5 °C 2.8 °C 1008.4 hPa West 0.3 km/h 3.2 km/h 72% 0 mm 28 W/m2
15:59 7.4 °C 2.7 °C 1008.4 hPa Calm   3.2 km/h 72% 0 mm 28 W/m2
16:00 7.4 °C 2.7 °C 1008.4 hPa Calm   3.2 km/h 72% 0 mm 21 W/m2
16:09 7.4 °C 2.7 °C 1008.7 hPa Calm     72% 0 mm 11 W/m2
16:14 7.3 °C 2.6 °C 1009 hPa Calm     72% 0 mm 7 W/m2
16:19 7.3 °C 2.6 °C 1009 hPa Calm     72% 0 mm 0 W/m2
16:24 7.2 °C 2.5 °C 1009 hPa Calm     72% 0 mm 0 W/m2
16:29 7.1 °C 2.6 °C 1009 hPa Calm     72.6% 0 mm 0 W/m2
16:34 7 °C 2.5 °C 1009.4 hPa Calm     73% 0 mm 0 W/m2
16:39 6.9 °C 2.6 °C 1009.4 hPa Calm     73.6% 0 mm 0 W/m2
16:44 6.9 °C 2.6 °C 1010 hPa Calm     74% 0 mm 0 W/m2
16:49 6.8 °C 2.5 °C 1010 hPa Calm     74% 0 mm 0 W/m2
16:54 6.7 °C 2.5 °C 1010.4 hPa Calm     74.3% 0 mm 0 W/m2
16:59 6.7 °C 2.6 °C 1010.7 hPa Calm     75% 0 mm 0 W/m2
17:04 6.6 °C 2.5 °C 1011.1 hPa Calm     75% 0 mm 0 W/m2
17:09 6.6 °C 2.5 °C 1011.1 hPa Calm     75.2% 0 mm 0 W/m2
17:14 6.6 °C 2.6 °C 1011.4 hPa Calm     76% 0 mm 0 W/m2
17:19 6.5 °C 2.6 °C 1011.4 hPa Calm   3.2 km/h 76% 0 mm 0 W/m2
17:24 6.4 °C 2.6 °C 1011.7 hPa Calm   3.2 km/h 76% 0 mm 0 W/m2
17:29 6.4 °C 2.5 °C 1011.4 hPa West 0.3 km/h 4.8 km/h 76% 0 mm 0 W/m2
17:34 6.4 °C 2.4 °C 1011.4 hPa Calm   4.8 km/h 75.7% 0 mm 0 W/m2
17:39 6.4 °C 2.3 °C 1012.1 hPa Calm     75% 0 mm 0 W/m2
17:44 6.4 °C 2.3 °C 1012.1 hPa Calm     75% 0 mm 0 W/m2
17:49 6.3 °C 2.2 °C 1012.1 hPa West 0.2 km/h 3.2 km/h 75% 0 mm 0 W/m2
17:54 6.3 °C 2.2 °C 1012.1 hPa Calm   3.2 km/h 75% 0 mm 0 W/m2
17:59 6.3 °C 2.2 °C 1011.7 hPa Calm   3.2 km/h 75% 0 mm 0 W/m2
18:04 6.3 °C 2.2 °C 1011.7 hPa Calm   3.2 km/h 75% 0 mm 0 W/m2
18:09 6.3 °C 2.2 °C 1011.7 hPa Calm     75% 0 mm 0 W/m2
18:14 6.3 °C 2.2 °C 1011.7 hPa Calm     75% 0 mm 0 W/m2
18:19 6.3 °C 2.2 °C 1011.7 hPa Calm     75% 0 mm 0 W/m2
18:24 6.2 °C 2.2 °C 1011.4 hPa Calm     75% 0 mm 0 W/m2
18:29 6.2 °C 2.1 °C 1011.1 hPa Calm     75% 0 mm 0 W/m2
18:34 6.2 °C 2.1 °C 1011.1 hPa West 1.3 km/h 6.4 km/h 74.9% 0 mm 0 W/m2
18:39 6.1 °C 1.8 °C 1011.4 hPa Calm   6.4 km/h 74% 0 mm 0 W/m2
18:44 6.1 °C 2 °C 1011.4 hPa Calm   6.4 km/h 74.9% 0 mm 0 W/m2
18:49 6.1 °C 2.2 °C 1011.7 hPa Calm   6.4 km/h 76% 0 mm 0 W/m2
18:54 6.1 °C 2.2 °C 1011.7 hPa Calm   6.4 km/h 76% 0 mm 0 W/m2
18:59 6 °C 2.1 °C 1011.7 hPa West 0.2 km/h 6.4 km/h 76% 0 mm 0 W/m2
19:04 5.9 °C 1.9 °C 1011.7 hPa West 0.2 km/h 6.4 km/h 75.5% 0 mm 0 W/m2
19:09 5.9 °C 1.8 °C 1011.7 hPa West 0.6 km/h 4.8 km/h 74.7% 0 mm 0 W/m2
19:14 5.9 °C 1.7 °C 1011.4 hPa Calm   4.8 km/h 74% 0 mm 0 W/m2
19:19 5.9 °C 1.6 °C 1011.4 hPa West 1.4 km/h 8 km/h 73.8% 0 mm 0 W/m2
19:24 5.9 °C 1.4 °C 1011.4 hPa West 0.5 km/h 8 km/h 72.6% 0 mm 0 W/m2
19:29 5.9 °C 1.3 °C 1011.7 hPa West 2.3 km/h 8 km/h 72% 0 mm 0 W/m2
19:34 6 °C 1.3 °C 1012.1 hPa West 0.2 km/h 8 km/h 71.8% 0 mm 0 W/m2
19:39 6.1 °C 1.3 °C 1011.7 hPa West 1.1 km/h 6.4 km/h 71.7% 0 mm 0 W/m2
19:44 6 °C 1.2 °C 1011.7 hPa WNW 1.3 km/h 6.4 km/h 71.4% 0 mm 0 W/m2
19:49 6 °C 1.2 °C 1011.7 hPa WNW 1.1 km/h 6.4 km/h 71% 0 mm 0 W/m2
19:54 6 °C 1.2 °C 1011.7 hPa WNW 0.6 km/h 6.4 km/h 71% 0 mm 0 W/m2
19:59 6 °C 1.2 °C 1011.4 hPa NW 1.4 km/h 6.4 km/h 71% 0 mm 0 W/m2
20:00 6 °C 1.2 °C 1011.1 hPa Calm   6.4 km/h 71% 0 mm 0 W/m2
20:09 6 °C 1.2 °C 1010.4 hPa Calm     71% 0 mm 0 W/m2
20:14 6 °C 1.3 °C 1010.4 hPa Calm   1.6 km/h 71.6% 0 mm 0 W/m2
20:19 6 °C 1.4 °C 1010.4 hPa Calm   1.6 km/h 72.7% 0 mm 0 W/m2
20:24 5.9 °C 1.3 °C 1010.4 hPa Calm   1.6 km/h 72% 0 mm 0 W/m2
20:29 5.9 °C 1.3 °C 1010.4 hPa NW 0.2 km/h 3.2 km/h 72% 0 mm 0 W/m2
20:34 5.9 °C 1.2 °C 1010.4 hPa Calm   3.2 km/h 72% 0 mm 0 W/m2
20:39 5.9 °C 1.4 °C 1010 hPa Calm     72.8% 0 mm 0 W/m2
20:44 5.8 °C 1.4 °C 1010 hPa NW 0.2 km/h 4.8 km/h 73% 0 mm 0 W/m2
20:49 5.8 °C 1.4 °C 1010 hPa Calm   4.8 km/h 73% 0 mm 0 W/m2
20:54 5.8 °C 1.3 °C 1010 hPa NW 1.8 km/h 11.3 km/h 73% 0 mm 0 W/m2
20:59 5.8 °C 1.4 °C 1010 hPa NNW 1.8 km/h 11.3 km/h 73.7% 0 mm 0 W/m2
21:04 5.7 °C 1.7 °C 1010.4 hPa North 2.1 km/h 11.3 km/h 75.5% 0 mm 0 W/m2
21:09 5.6 °C 1.8 °C 1010.7 hPa NNW 4 km/h 16.1 km/h 76.6% 0 mm 0 W/m2
21:14 5.4 °C 1.7 °C 1010.7 hPa North 5.3 km/h 16.1 km/h 77.4% 0 mm 0 W/m2
21:19 5.2 °C 1.7 °C 1011.4 hPa North 2.6 km/h 19.3 km/h 78.1% 0.25 mm 0 W/m2
21:24 5 °C 1.8 °C 1011.4 hPa NNE 5 km/h 19.3 km/h 79.5% 0.25 mm 0 W/m2
21:29 4.8 °C 1.8 °C 1011.4 hPa NW 1.1 km/h 19.3 km/h 80.6% 0.25 mm 0 W/m2
21:34 4.7 °C 1.9 °C 1011.1 hPa NW 0.6 km/h 19.3 km/h 81.9% 0.25 mm 0 W/m2
21:39 4.6 °C 1.9 °C 1011.4 hPa NW 1.9 km/h 8 km/h 82.9% 0.25 mm 0 W/m2
21:44 4.4 °C 1.9 °C 1011.4 hPa Calm   8 km/h 83.6% 0.25 mm 0 W/m2
21:49 4.3 °C 1.8 °C 1011.4 hPa Calm   8 km/h 84% 0.25 mm 0 W/m2
21:54 4.2 °C 1.9 °C 1011.4 hPa Calm   8 km/h 84.8% 0.25 mm 0 W/m2
21:59 4.1 °C 1.8 °C 1011.4 hPa Calm   8 km/h 85% 0.25 mm 0 W/m2
22:04 4.1 °C 1.9 °C 1010.7 hPa Calm   8 km/h 85.9% 0.51 mm 0 W/m2
22:09 3.9 °C 1.8 °C 1011.1 hPa Calm     86.1% 0.51 mm 0 W/m2
22:14 3.8 °C 1.9 °C 1010.7 hPa Calm     87.1% 0.51 mm 0 W/m2
22:19 3.8 °C 1.9 °C 1010.7 hPa Calm     88% 0.51 mm 0 W/m2
22:24 3.7 °C 1.9 °C 1010.4 hPa Calm     88% 0.51 mm 0 W/m2
22:29 3.7 °C 1.9 °C 1010.4 hPa Calm     88.4% 0.51 mm 0 W/m2
22:34 3.7 °C 2 °C 1010.4 hPa NW 0.6 km/h 3.2 km/h 89% 0.51 mm 0 W/m2
22:39 3.7 °C 2.1 °C 1010.7 hPa Calm   3.2 km/h 89.3% 0.25 mm 0 W/m2
22:44 3.7 °C 2.2 °C 1010.7 hPa Calm   3.2 km/h 90% 0.51 mm 0 W/m2
22:49 3.7 °C 2.2 °C 1010.7 hPa Calm   3.2 km/h 90% 0.76 mm 0 W/m2
22:54 3.7 °C 2.2 °C 1010.7 hPa Calm   3.2 km/h 90% 0.76 mm 0 W/m2
22:59 3.7 °C 2.2 °C 1010.7 hPa Calm   3.2 km/h 90% 0.76 mm 0 W/m2
23:00 3.6 °C 2.1 °C 1010.7 hPa Calm   3.2 km/h 90% 0.76 mm 0 W/m2
23:09 3.6 °C 2.2 °C 1011.1 hPa Calm     91% 0.76 mm 0 W/m2
23:14 3.6 °C 2.2 °C 1011.1 hPa Calm     91% 0.76 mm 0 W/m2
23:19 3.5 °C 2.2 °C 1011.1 hPa Calm     91% 0.76 mm 0 W/m2
23:24 3.5 °C 2.2 °C 1010.7 hPa Calm     91% 0.76 mm 0 W/m2
23:29 3.4 °C 2.1 °C 1010.7 hPa Calm     91% 0.76 mm 0 W/m2
23:34 3.4 °C 2.1 °C 1010.7 hPa Calm     91.3% 0.76 mm 0 W/m2
23:39 3.4 °C 2.2 °C 1010.7 hPa Calm     92% 0.76 mm 0 W/m2
23:44 3.3 °C 2.2 °C 1010.4 hPa Calm     92% 0.76 mm 0 W/m2
23:49 3.3 °C 2.2 °C 1010.4 hPa Calm     92% 0.76 mm 0 W/m2
23:54 3.3 °C 2.2 °C 1010.4 hPa Calm     92% 0.76 mm 0 W/m2
23:59 3.3 °C 2.2 °C 1010.7 hPa Calm     92% 0.76 mm 0 W/m2
Hartford County Weather
Compliments of Weather Underground - 2 mb